createdAt,value
2022-10-29T00:01:25.190Z,100.00
2022-10-29T00:03:28.081Z,100.00
2022-10-29T00:05:31.206Z,100.00
2022-10-29T00:07:33.944Z,100.00
2022-10-29T00:09:36.697Z,100.00
2022-10-29T00:11:41.027Z,100.00
2022-10-29T00:13:44.187Z,100.00
2022-10-29T00:15:46.998Z,100.00
2022-10-29T00:17:49.759Z,100.00
2022-10-29T00:19:52.607Z,100.00
2022-10-29T00:21:55.340Z,100.00
2022-10-29T00:23:58.887Z,100.00
2022-10-29T00:26:02.869Z,100.00
2022-10-29T00:28:07.127Z,100.00
2022-10-29T00:30:11.277Z,100.00
2022-10-29T00:32:14.035Z,100.00
2022-10-29T00:34:16.956Z,100.00
2022-10-29T00:36:22.086Z,100.00
2022-10-29T00:38:24.996Z,100.00
2022-10-29T00:40:27.757Z,100.00
2022-10-29T00:42:30.570Z,100.00
2022-10-29T00:44:36.214Z,100.00
2022-10-29T00:46:39.483Z,100.00
2022-10-29T00:48:47.053Z,100.00
2022-10-29T00:50:50.594Z,100.00
2022-10-29T00:52:54.902Z,100.00
2022-10-29T00:55:02.318Z,100.00
2022-10-29T00:57:11.067Z,100.00
2022-10-29T00:59:17.101Z,100.00
2022-10-29T01:01:22.629Z,100.00
2022-10-29T01:03:25.420Z,100.00
2022-10-29T01:05:29.908Z,100.00
2022-10-29T01:07:33.188Z,100.00
2022-10-29T01:09:36.000Z,100.00
2022-10-29T01:11:49.577Z,100.00
2022-10-29T01:14:08.134Z,100.00
2022-10-29T01:16:20.545Z,100.00
2022-10-29T01:18:35.653Z,100.00
2022-10-29T01:21:01.184Z,100.00
2022-10-29T01:23:22.026Z,100.00
2022-10-29T01:25:44.166Z,100.00
2022-10-29T01:28:00.090Z,100.00
2022-10-29T01:30:11.747Z,100.00
2022-10-29T01:32:19.564Z,100.00
2022-10-29T01:34:29.836Z,100.00
2022-10-29T01:36:40.148Z,100.00
2022-10-29T01:38:52.622Z,100.00
2022-10-29T01:41:01.201Z,100.00
2022-10-29T01:43:08.508Z,100.00
2022-10-29T01:45:18.233Z,100.00
2022-10-29T01:47:25.983Z,100.00
2022-10-29T01:49:34.246Z,100.00
2022-10-29T01:51:39.175Z,100.00
2022-10-29T01:53:42.456Z,100.00
2022-10-29T01:55:45.207Z,100.00
2022-10-29T01:57:47.957Z,100.00
2022-10-29T01:59:56.122Z,100.00
2022-10-29T02:02:10.017Z,100.00
2022-10-29T02:04:33.455Z,100.00
2022-10-29T02:06:44.519Z,100.00
2022-10-29T02:08:56.815Z,100.00
2022-10-29T02:11:04.035Z,100.00
2022-10-29T02:13:09.422Z,100.00
2022-10-29T02:15:17.909Z,100.00
2022-10-29T02:17:20.966Z,100.00
2022-10-29T02:19:30.182Z,100.00
2022-10-29T02:21:32.930Z,100.00
2022-10-29T02:23:35.799Z,100.00
2022-10-29T02:25:38.660Z,100.00
2022-10-29T02:27:41.855Z,100.00
2022-10-29T02:29:44.535Z,100.00
2022-10-29T02:31:47.247Z,100.00
2022-10-29T02:33:49.923Z,100.00
2022-10-29T02:35:53.970Z,100.00
2022-10-29T02:37:56.679Z,100.00
2022-10-29T02:39:59.406Z,100.00
2022-10-29T02:42:02.189Z,100.00
2022-10-29T02:44:05.109Z,100.00
2022-10-29T02:46:12.035Z,100.00
2022-10-29T02:48:14.816Z,100.00
2022-10-29T02:50:17.533Z,100.00
2022-10-29T02:52:21.715Z,100.00
2022-10-29T02:54:24.543Z,100.00
2022-10-29T02:56:27.402Z,100.00
2022-10-29T02:58:30.245Z,100.00
2022-10-29T03:00:33.103Z,100.00
2022-10-29T03:02:36.004Z,100.00
2022-10-29T03:04:39.681Z,100.00
2022-10-29T03:06:42.453Z,100.00
2022-10-29T03:08:47.366Z,100.00
2022-10-29T03:10:50.125Z,100.00
2022-10-29T03:12:53.165Z,100.00
2022-10-29T03:14:56.148Z,100.00
2022-10-29T03:16:58.881Z,100.00
2022-10-29T03:19:01.768Z,99.72
2022-10-29T03:21:04.720Z,99.00
2022-10-29T03:23:07.452Z,98.31
2022-10-29T03:25:12.139Z,98.41
2022-10-29T03:27:14.838Z,97.03
2022-10-29T03:29:17.647Z,98.38
2022-10-29T03:31:20.311Z,97.92
2022-10-29T03:33:23.177Z,99.62
2022-10-29T03:35:26.103Z,100.00
2022-10-29T03:37:28.863Z,100.00
2022-10-29T03:39:31.605Z,100.00
2022-10-29T03:41:35.625Z,100.00
2022-10-29T03:43:38.461Z,100.00
2022-10-29T03:45:41.230Z,98.40
2022-10-29T03:47:44.191Z,98.42
2022-10-29T03:49:46.925Z,99.22
2022-10-29T03:51:49.600Z,100.00
2022-10-29T03:53:52.603Z,100.00
2022-10-29T03:55:56.685Z,100.00
2022-10-29T03:58:01.193Z,99.30
2022-10-29T04:00:04.974Z,97.90
2022-10-29T04:02:15.724Z,97.91
2022-10-29T04:04:18.501Z,97.87
2022-10-29T04:06:21.329Z,97.02
2022-10-29T04:08:24.298Z,96.58
2022-10-29T04:10:27.553Z,98.15
2022-10-29T04:12:30.297Z,98.87
2022-10-29T04:14:34.897Z,99.35
2022-10-29T04:16:38.085Z,99.46
2022-10-29T04:18:40.772Z,99.85
2022-10-29T04:22:31.654Z,100.00
2022-10-29T04:30:18.807Z,100.00
2022-10-29T04:32:21.527Z,100.00
2022-10-29T04:34:24.389Z,100.00
2022-10-29T04:36:27.120Z,100.00
2022-10-29T04:38:30.050Z,100.00
2022-10-29T04:40:32.751Z,100.00
2022-10-29T04:42:37.040Z,100.00
2022-10-29T04:44:39.719Z,100.00
2022-10-29T04:46:43.752Z,100.00
2022-10-29T04:48:46.474Z,100.00
2022-10-29T04:50:49.790Z,100.00
2022-10-29T04:52:52.445Z,100.00
2022-10-29T04:54:55.149Z,100.00
2022-10-29T04:56:57.828Z,100.00
2022-10-29T04:59:00.485Z,100.00
2022-10-29T05:01:05.046Z,100.00
2022-10-29T05:03:09.577Z,100.00
2022-10-29T05:05:12.259Z,100.00
2022-10-29T05:07:15.002Z,100.00
2022-10-29T05:09:17.677Z,100.00
2022-10-29T05:11:20.413Z,100.00
2022-10-29T05:13:23.171Z,100.00
2022-10-29T05:15:26.025Z,100.00
2022-10-29T05:17:28.935Z,100.00
2022-10-29T05:19:33.041Z,100.00
2022-10-29T05:21:37.226Z,100.00
2022-10-29T05:23:39.989Z,100.00
2022-10-29T05:25:43.009Z,100.00
2022-10-29T05:27:45.836Z,100.00
2022-10-29T05:29:48.576Z,100.00
2022-10-29T05:31:54.302Z,100.00
2022-10-29T05:33:57.245Z,100.00
2022-10-29T05:36:01.955Z,100.00
2022-10-29T05:38:05.549Z,100.00
2022-10-29T05:40:10.190Z,100.00
2022-10-29T05:42:13.296Z,100.00
2022-10-29T05:44:15.981Z,100.00
2022-10-29T05:46:18.817Z,100.00
2022-10-29T05:48:21.496Z,100.00
2022-10-29T05:50:24.589Z,100.00
2022-10-29T05:52:28.670Z,100.00
2022-10-29T05:54:31.348Z,100.00
2022-10-29T05:56:34.101Z,100.00
2022-10-29T05:58:36.837Z,100.00
2022-10-29T06:00:41.183Z,100.00
2022-10-29T06:02:44.270Z,100.00
2022-10-29T06:04:47.124Z,100.00
2022-10-29T06:06:49.955Z,100.00
2022-10-29T06:08:54.082Z,100.00
2022-10-29T06:10:56.758Z,100.00
2022-10-29T06:12:59.523Z,100.00
2022-10-29T06:15:02.306Z,100.00
2022-10-29T06:17:05.206Z,100.00
2022-10-29T06:19:07.955Z,100.00
2022-10-29T06:21:10.633Z,100.00
2022-10-29T06:23:13.375Z,100.00
2022-10-29T06:25:17.773Z,100.00
2022-10-29T06:27:20.510Z,100.00
2022-10-29T06:29:23.430Z,100.00
2022-10-29T06:31:26.179Z,100.00
2022-10-29T06:33:29.178Z,100.00
2022-10-29T06:35:32.656Z,100.00
2022-10-29T06:37:38.957Z,100.00
2022-10-29T06:39:41.716Z,100.00
2022-10-29T06:41:45.801Z,100.00
2022-10-29T06:43:54.754Z,100.00
2022-10-29T06:45:57.498Z,100.00
2022-10-29T06:48:00.459Z,100.00
2022-10-29T06:50:03.258Z,100.00
2022-10-29T06:52:06.720Z,100.00
2022-10-29T06:54:09.546Z,100.00
2022-10-29T06:56:12.342Z,100.00
2022-10-29T06:58:18.365Z,100.00
2022-10-29T07:00:21.119Z,100.00
2022-10-29T07:02:24.839Z,100.00
2022-10-29T07:04:27.607Z,100.00
2022-10-29T07:06:33.673Z,100.00
2022-10-29T07:08:36.441Z,100.00
2022-10-29T07:10:40.239Z,100.00
2022-10-29T07:12:43.963Z,100.00
2022-10-29T07:14:48.212Z,100.00
2022-10-29T07:16:50.949Z,100.00
2022-10-29T07:18:54.049Z,100.00
2022-10-29T07:20:56.700Z,100.00
2022-10-29T07:23:00.398Z,100.00
2022-10-29T07:25:03.141Z,100.00
2022-10-29T07:27:07.581Z,100.00
2022-10-29T07:29:10.622Z,100.00
2022-10-29T07:31:14.792Z,100.00
2022-10-29T07:33:18.327Z,100.00
2022-10-29T07:35:21.234Z,100.00
2022-10-29T07:37:24.023Z,100.00
2022-10-29T07:39:26.866Z,100.00
2022-10-29T07:41:29.740Z,100.00
2022-10-29T07:43:32.462Z,100.00
2022-10-29T07:45:35.188Z,100.00
2022-10-29T07:47:39.289Z,100.00
2022-10-29T07:49:42.045Z,100.00
2022-10-29T07:51:44.748Z,100.00
2022-10-29T07:53:47.478Z,100.00
2022-10-29T07:55:54.272Z,100.00
2022-10-29T07:57:59.008Z,100.00
2022-10-29T08:00:02.133Z,100.00
2022-10-29T08:02:14.826Z,100.00
2022-10-29T08:04:19.213Z,100.00
2022-10-29T08:06:21.990Z,98.96
2022-10-29T08:08:24.781Z,98.02
2022-10-29T08:10:28.078Z,99.41
2022-10-29T08:12:30.824Z,97.49
2022-10-29T08:14:33.572Z,97.23
2022-10-29T08:16:36.341Z,96.75
2022-10-29T08:18:39.059Z,96.42
2022-10-29T08:20:43.902Z,94.90
2022-10-29T08:22:46.825Z,94.55
2022-10-29T08:24:49.744Z,93.60
2022-10-29T08:26:52.482Z,93.30
2022-10-29T08:28:55.173Z,94.16
2022-10-29T08:30:57.974Z,92.42
2022-10-29T08:33:01.741Z,91.99
2022-10-29T08:35:05.288Z,92.34
2022-10-29T08:37:09.490Z,90.81
2022-10-29T08:39:12.177Z,89.77
2022-10-29T08:41:29.633Z,90.96
2022-10-29T08:44:07.269Z,90.54
2022-10-29T08:46:18.179Z,87.97
2022-10-29T08:48:32.871Z,87.89
2022-10-29T08:50:41.321Z,87.59
2022-10-29T08:52:53.206Z,86.25
2022-10-29T08:55:15.238Z,85.64
2022-10-29T08:57:22.501Z,85.36
2022-10-29T08:59:27.105Z,84.81
2022-10-29T09:01:31.298Z,83.36
2022-10-29T09:03:34.119Z,84.08
2022-10-29T09:05:50.153Z,83.42
2022-10-29T09:08:11.816Z,83.07
2022-10-29T09:10:26.797Z,81.61
2022-10-29T09:12:50.264Z,81.21
2022-10-29T09:15:16.203Z,79.48
2022-10-29T09:17:28.194Z,79.00
2022-10-29T09:19:48.270Z,80.01
2022-10-29T09:22:01.950Z,79.08
2022-10-29T09:24:15.346Z,79.15
2022-10-29T09:26:25.794Z,78.71
2022-10-29T09:28:36.963Z,78.55
2022-10-29T09:30:48.579Z,76.25
2022-10-29T09:32:58.564Z,76.00
2022-10-29T09:35:05.335Z,73.70
2022-10-29T09:37:16.197Z,76.08
2022-10-29T09:39:33.913Z,75.46
2022-10-29T09:41:38.818Z,75.31
2022-10-29T09:43:49.576Z,73.86
2022-10-29T09:45:59.590Z,73.33
2022-10-29T09:48:12.375Z,73.86
2022-10-29T09:50:22.595Z,72.19
2022-10-29T09:52:29.008Z,71.90
2022-10-29T09:54:34.529Z,69.79
2022-10-29T09:56:41.044Z,68.60
2022-10-29T09:58:47.813Z,68.07
2022-10-29T10:00:51.162Z,67.72
2022-10-29T10:03:01.206Z,69.58
2022-10-29T10:05:07.487Z,69.39
2022-10-29T10:07:12.209Z,69.46
2022-10-29T10:09:14.968Z,68.66
2022-10-29T10:11:21.073Z,67.47
2022-10-29T10:13:27.420Z,66.54
2022-10-29T10:15:33.682Z,66.82
2022-10-29T10:17:59.071Z,66.46
2022-10-29T10:20:02.336Z,65.23
2022-10-29T10:22:06.831Z,64.63
2022-10-29T10:24:33.088Z,63.82
2022-10-29T10:26:42.959Z,62.77
2022-10-29T10:28:45.641Z,63.63
2022-10-29T10:31:07.755Z,62.25
2022-10-29T10:33:24.936Z,62.28
2022-10-29T10:35:30.090Z,60.67
2022-10-29T10:37:34.720Z,60.39
2022-10-29T10:39:39.376Z,60.59
2022-10-29T10:41:44.033Z,59.99
2022-10-29T10:43:48.219Z,59.27
2022-10-29T10:45:57.450Z,58.19
2022-10-29T10:48:01.087Z,57.50
2022-10-29T10:50:13.161Z,55.30
2022-10-29T10:52:19.550Z,55.67
2022-10-29T10:54:30.122Z,53.52
2022-10-29T10:56:34.181Z,54.87
2022-10-29T10:58:44.458Z,54.22
2022-10-29T11:00:54.988Z,54.33
2022-10-29T11:03:03.577Z,52.48
2022-10-29T11:05:15.749Z,51.51
2022-10-29T11:07:18.995Z,51.32
2022-10-29T11:09:26.965Z,51.71
2022-10-29T11:11:33.408Z,50.29
2022-10-29T11:13:36.424Z,49.02
2022-10-29T11:15:45.016Z,49.71
2022-10-29T11:17:54.262Z,49.88
2022-10-29T11:20:00.842Z,49.15
2022-10-29T11:22:13.804Z,47.63
2022-10-29T11:24:25.269Z,48.13
2022-10-29T11:26:33.596Z,47.00
2022-10-29T11:28:40.417Z,46.47
2022-10-29T11:30:52.975Z,46.21
2022-10-29T11:33:04.867Z,46.24
2022-10-29T11:35:13.419Z,45.34
2022-10-29T11:37:24.487Z,45.38
2022-10-29T11:39:32.548Z,45.58
2022-10-29T11:41:41.947Z,46.58
2022-10-29T11:43:44.606Z,46.84
2022-10-29T11:46:00.062Z,45.92
2022-10-29T11:48:21.758Z,46.47
2022-10-29T11:50:32.940Z,46.86
2022-10-29T11:52:41.557Z,47.28
2022-10-29T11:55:00.436Z,46.22
2022-10-29T11:57:10.002Z,46.30
2022-10-29T11:59:19.857Z,47.34
2022-10-29T12:01:34.115Z,46.66
2022-10-29T12:04:00.141Z,46.41
2022-10-29T12:06:10.407Z,46.64
2022-10-29T12:08:27.881Z,47.87
2022-10-29T12:10:45.884Z,48.15
2022-10-29T12:12:58.201Z,46.99
2022-10-29T12:15:10.155Z,46.79
2022-10-29T12:17:16.893Z,47.51
2022-10-29T12:19:31.761Z,48.25
2022-10-29T12:21:46.405Z,47.00
2022-10-29T12:24:02.462Z,47.17
2022-10-29T12:26:12.264Z,46.22
2022-10-29T12:28:23.097Z,45.99
2022-10-29T12:30:26.197Z,44.38
2022-10-29T12:32:36.789Z,45.00
2022-10-29T12:34:44.788Z,42.02
2022-10-29T12:36:57.621Z,42.48
2022-10-29T12:39:02.373Z,42.03
2022-10-29T12:41:09.985Z,41.91
2022-10-29T12:43:19.339Z,41.00
2022-10-29T12:45:34.766Z,39.90
2022-10-29T12:47:44.046Z,40.62
2022-10-29T12:50:01.187Z,39.97
2022-10-29T12:52:10.950Z,39.71
2022-10-29T12:54:37.702Z,39.61
2022-10-29T12:56:42.941Z,39.81
2022-10-29T12:58:52.906Z,39.49
2022-10-29T13:00:55.699Z,38.73
2022-10-29T13:03:00.431Z,40.16
2022-10-29T13:05:35.922Z,40.48
2022-10-29T13:08:00.223Z,39.70
2022-10-29T13:10:40.319Z,41.08
2022-10-29T13:13:00.926Z,41.34
2022-10-29T13:15:10.370Z,42.28
2022-10-29T13:17:27.573Z,41.90
2022-10-29T13:19:40.759Z,41.65
2022-10-29T13:22:00.676Z,41.89
2022-10-29T13:24:05.572Z,42.00
2022-10-29T13:26:09.060Z,43.05
2022-10-29T13:28:50.697Z,42.12
2022-10-29T13:30:55.465Z,42.64
2022-10-29T13:32:58.628Z,43.68
2022-10-29T13:35:04.158Z,41.86
2022-10-29T13:38:03.347Z,41.56
2022-10-29T13:40:43.751Z,41.13
2022-10-29T13:42:46.993Z,41.80
2022-10-29T13:44:49.986Z,42.56
2022-10-29T13:46:57.286Z,43.41
2022-10-29T13:49:03.491Z,44.38
2022-10-29T13:51:11.404Z,46.55
2022-10-29T13:53:16.832Z,47.24
2022-10-29T13:55:21.695Z,49.47
2022-10-29T13:57:31.036Z,50.30
2022-10-29T13:59:41.123Z,53.14
2022-10-29T14:01:57.193Z,55.05
2022-10-29T14:04:06.348Z,57.12
2022-10-29T14:06:17.453Z,58.01
2022-10-29T14:08:25.875Z,59.31
2022-10-29T14:10:33.594Z,59.41
2022-10-29T14:12:38.301Z,60.15
2022-10-29T14:14:51.796Z,60.70
2022-10-29T14:17:13.682Z,61.58
2022-10-29T14:19:21.516Z,62.99
2022-10-29T14:21:28.149Z,64.17
2022-10-29T14:23:32.701Z,65.62
2022-10-29T14:25:36.817Z,67.36
2022-10-29T14:27:39.726Z,69.18
2022-10-29T14:29:42.966Z,71.14
2022-10-29T14:31:46.102Z,72.98
2022-10-29T14:33:55.586Z,74.75
2022-10-29T14:36:05.901Z,75.86
2022-10-29T14:38:12.599Z,76.67
2022-10-29T14:40:20.519Z,77.72
2022-10-29T14:42:30.573Z,78.50
2022-10-29T14:44:34.185Z,78.35
2022-10-29T14:46:39.706Z,77.03
2022-10-29T14:48:52.381Z,76.95
2022-10-29T14:50:56.669Z,76.72
2022-10-29T14:53:03.328Z,75.09
2022-10-29T14:55:10.467Z,75.62
2022-10-29T14:57:17.599Z,76.82
2022-10-29T14:59:28.071Z,77.83
2022-10-29T15:01:32.335Z,77.24
2022-10-29T15:03:36.331Z,76.61
2022-10-29T15:05:39.335Z,77.63
2022-10-29T15:07:42.145Z,78.54
2022-10-29T15:09:47.192Z,78.66
2022-10-29T15:12:00.729Z,81.91
2022-10-29T15:14:04.857Z,82.99
2022-10-29T15:16:10.283Z,84.85
2022-10-29T15:18:20.692Z,84.93
2022-10-29T15:20:27.040Z,87.03
2022-10-29T15:22:34.665Z,88.19
2022-10-29T15:24:37.621Z,89.95
2022-10-29T15:26:47.220Z,90.88
2022-10-29T15:28:53.682Z,91.63
2022-10-29T15:30:56.479Z,93.75
2022-10-29T15:33:00.297Z,93.26
2022-10-29T15:35:03.314Z,93.27
2022-10-29T15:37:23.689Z,94.78
2022-10-29T15:39:27.934Z,96.41
2022-10-29T15:41:35.623Z,96.42
2022-10-29T15:43:55.846Z,97.37
2022-10-29T15:45:59.149Z,97.62
2022-10-29T15:48:30.601Z,97.90
2022-10-29T15:50:39.065Z,98.86
2022-10-29T15:52:44.401Z,99.01
2022-10-29T15:54:47.552Z,96.97
2022-10-29T15:56:51.244Z,99.92
2022-10-29T15:58:56.917Z,99.73
2022-10-29T16:00:59.715Z,98.12
2022-10-29T16:03:13.785Z,97.97
2022-10-29T16:05:17.902Z,97.51
2022-10-29T16:07:20.697Z,98.91
2022-10-29T16:09:23.471Z,96.00
2022-10-29T16:11:26.866Z,96.44
2022-10-29T16:13:31.301Z,96.17
2022-10-29T16:15:38.758Z,98.13
2022-10-29T16:17:44.645Z,98.52
2022-10-29T16:19:47.672Z,97.56
2022-10-29T16:21:50.422Z,99.03
2022-10-29T16:23:53.967Z,100.00
2022-10-29T16:25:56.705Z,98.72
2022-10-29T16:27:59.889Z,100.00
2022-10-29T16:30:02.832Z,98.94
2022-10-29T16:32:07.480Z,100.00
2022-10-29T16:34:15.148Z,100.00
2022-10-29T16:36:20.109Z,99.97
2022-10-29T16:38:22.992Z,100.00
2022-10-29T16:40:27.928Z,98.07
2022-10-29T16:42:34.513Z,99.57
2022-10-29T16:44:37.309Z,98.26
2022-10-29T16:46:40.076Z,98.65
2022-10-29T16:48:45.536Z,99.88
2022-10-29T16:50:48.167Z,97.92
2022-10-29T16:52:57.529Z,96.79
2022-10-29T16:55:00.185Z,93.80
2022-10-29T16:57:02.838Z,90.12
2022-10-29T16:59:05.664Z,88.31
2022-10-29T17:01:10.362Z,88.19
2022-10-29T17:03:15.149Z,89.52
2022-10-29T17:05:19.488Z,87.23
2022-10-29T17:07:22.233Z,84.56
2022-10-29T17:09:25.698Z,84.50
2022-10-29T17:11:28.556Z,82.69
2022-10-29T17:13:31.266Z,82.48
2022-10-29T17:15:33.995Z,81.31
2022-10-29T17:17:37.540Z,78.70
2022-10-29T17:19:40.902Z,77.68
2022-10-29T17:21:44.992Z,76.69
2022-10-29T17:23:48.815Z,76.03
2022-10-29T17:25:55.257Z,75.70
2022-10-29T17:27:58.484Z,75.74
2022-10-29T17:30:01.497Z,76.61
2022-10-29T17:32:04.973Z,76.06
2022-10-29T17:34:07.787Z,77.75
2022-10-29T17:36:13.823Z,75.68
2022-10-29T17:38:17.921Z,76.55
2022-10-29T17:40:20.634Z,78.11
2022-10-29T17:42:23.297Z,75.90
2022-10-29T17:44:27.430Z,74.88
2022-10-29T17:46:30.195Z,75.86
2022-10-29T17:48:32.889Z,74.89
2022-10-29T17:50:35.643Z,73.57
2022-10-29T17:52:38.394Z,72.09
2022-10-29T17:54:42.596Z,70.73
2022-10-29T17:56:45.363Z,70.29
2022-10-29T17:58:48.154Z,69.82
2022-10-29T18:00:50.951Z,69.49
2022-10-29T18:02:53.783Z,68.99
2022-10-29T18:04:56.543Z,69.17
2022-10-29T18:06:59.262Z,68.41
2022-10-29T18:09:02.187Z,68.42
2022-10-29T18:11:07.954Z,67.63
2022-10-29T18:13:10.668Z,68.23
2022-10-29T18:15:13.472Z,68.22
2022-10-29T18:17:16.079Z,68.01
2022-10-29T18:19:18.790Z,68.33
2022-10-29T18:21:22.791Z,68.96
2022-10-29T18:23:25.494Z,68.21
2022-10-29T18:25:28.289Z,68.94
2022-10-29T18:27:32.696Z,69.48
2022-10-29T18:29:35.414Z,69.81
2022-10-29T18:31:42.121Z,71.04
2022-10-29T18:33:44.932Z,69.28
2022-10-29T18:35:47.684Z,70.15
2022-10-29T18:37:50.477Z,69.54
2022-10-29T18:39:56.238Z,69.52
2022-10-29T18:41:59.446Z,70.16
2022-10-29T18:44:03.736Z,69.23
2022-10-29T18:46:07.928Z,69.16
2022-10-29T18:48:10.850Z,69.24
2022-10-29T18:50:14.046Z,69.10
2022-10-29T18:52:16.926Z,69.31
2022-10-29T18:54:19.757Z,70.54
2022-10-29T18:56:23.816Z,72.94
2022-10-29T18:58:26.577Z,70.78
2022-10-29T19:00:30.628Z,70.78
2022-10-29T19:02:33.756Z,71.17
2022-10-29T19:04:36.484Z,71.09
2022-10-29T19:06:39.368Z,70.11
2022-10-29T19:08:44.632Z,70.39
2022-10-29T19:10:47.372Z,71.18
2022-10-29T19:12:50.075Z,69.55
2022-10-29T19:14:53.025Z,70.70
2022-10-29T19:16:57.115Z,69.92
2022-10-29T19:19:01.104Z,70.58
2022-10-29T19:21:05.107Z,70.36
2022-10-29T19:23:07.828Z,71.84
2022-10-29T19:25:10.648Z,70.10
2022-10-29T19:27:13.366Z,70.82
2022-10-29T19:29:16.432Z,71.72
2022-10-29T19:31:22.313Z,73.62
2022-10-29T19:33:26.478Z,72.73
2022-10-29T19:35:29.195Z,72.55
2022-10-29T19:37:31.927Z,71.84
2022-10-29T19:39:34.627Z,72.14
2022-10-29T19:41:37.454Z,73.98
2022-10-29T19:43:40.968Z,75.37
2022-10-29T19:45:43.677Z,74.94
2022-10-29T19:47:46.503Z,73.78
2022-10-29T19:49:50.603Z,75.24
2022-10-29T19:51:53.471Z,74.06
2022-10-29T19:53:57.875Z,76.94
2022-10-29T19:56:00.593Z,74.97
2022-10-29T19:58:03.310Z,76.65
2022-10-29T20:00:07.103Z,78.23
2022-10-29T20:02:11.070Z,78.31
2022-10-29T20:04:14.102Z,79.19
2022-10-29T20:06:18.575Z,77.41
2022-10-29T20:08:21.369Z,79.45
2022-10-29T20:10:24.460Z,81.20
2022-10-29T20:12:27.160Z,80.09
2022-10-29T20:14:31.561Z,79.82
2022-10-29T20:16:34.404Z,80.47
2022-10-29T20:18:38.198Z,82.06
2022-10-29T20:20:40.945Z,83.24
2022-10-29T20:22:46.251Z,80.99
2022-10-29T20:24:48.943Z,82.79
2022-10-29T20:26:51.669Z,84.47
2022-10-29T20:28:57.008Z,83.77
2022-10-29T20:31:25.554Z,86.02
2022-10-29T20:33:30.652Z,84.43
2022-10-29T20:35:33.344Z,86.13
2022-10-29T20:37:36.059Z,87.98
2022-10-29T20:39:40.149Z,86.26
2022-10-29T20:41:43.463Z,87.48
2022-10-29T20:43:46.441Z,88.34
2022-10-29T20:45:49.125Z,87.26
2022-10-29T20:47:51.891Z,88.04
2022-10-29T20:49:54.619Z,87.25
2022-10-29T20:51:57.374Z,86.45
2022-10-29T20:54:00.968Z,87.68
2022-10-29T20:56:05.216Z,86.81
2022-10-29T20:58:08.177Z,86.46
2022-10-29T21:00:11.992Z,89.07
2022-10-29T21:02:14.841Z,87.19
2022-10-29T21:04:17.727Z,85.84
2022-10-29T21:06:20.907Z,87.99
2022-10-29T21:08:23.623Z,83.96
2022-10-29T21:10:26.410Z,85.45
2022-10-29T21:12:30.553Z,84.56
2022-10-29T21:14:33.300Z,83.44
2022-10-29T21:16:36.084Z,84.01
2022-10-29T21:18:40.337Z,84.30
2022-10-29T21:20:43.040Z,85.99
2022-10-29T21:22:45.730Z,83.70
2022-10-29T21:24:48.420Z,83.92
2022-10-29T21:26:51.168Z,82.77
2022-10-29T21:28:55.450Z,81.83
2022-10-29T21:30:58.218Z,82.37
2022-10-29T21:33:00.933Z,82.11
2022-10-29T21:35:03.842Z,82.54
2022-10-29T21:37:06.555Z,80.69
2022-10-29T21:39:09.266Z,82.41
2022-10-29T21:41:12.086Z,81.79
2022-10-29T21:43:15.294Z,82.63
2022-10-29T21:45:19.507Z,82.28
2022-10-29T21:47:22.359Z,81.85
2022-10-29T21:49:25.200Z,81.04
2022-10-29T21:51:27.898Z,80.66
2022-10-29T21:53:31.270Z,80.97
2022-10-29T21:55:34.806Z,81.89
2022-10-29T21:57:37.565Z,82.40
2022-10-29T21:59:40.302Z,83.49
2022-10-29T22:01:44.485Z,83.81
2022-10-29T22:03:48.291Z,83.33
2022-10-29T22:05:51.047Z,84.23
2022-10-29T22:07:55.365Z,84.93
2022-10-29T22:09:58.417Z,85.05
2022-10-29T22:12:01.161Z,83.61
2022-10-29T22:14:03.967Z,85.33
2022-10-29T22:16:07.923Z,85.04
2022-10-29T22:18:11.992Z,87.34
2022-10-29T22:20:14.743Z,87.68
2022-10-29T22:22:17.477Z,88.07
2022-10-29T22:24:20.176Z,87.92
2022-10-29T22:26:25.090Z,87.83
2022-10-29T22:28:27.884Z,87.23
2022-10-29T22:30:30.624Z,87.87
2022-10-29T22:32:33.394Z,89.07
2022-10-29T22:34:37.375Z,88.44
2022-10-29T22:36:40.035Z,89.66
2022-10-29T22:38:42.839Z,87.57
2022-10-29T22:40:45.509Z,88.85
2022-10-29T22:42:48.229Z,89.80
2022-10-29T22:44:50.934Z,90.13
2022-10-29T22:46:53.655Z,89.40
2022-10-29T22:48:57.136Z,91.64
2022-10-29T22:51:03.399Z,91.09
2022-10-29T22:53:06.064Z,92.04
2022-10-29T22:55:09.274Z,93.90
2022-10-29T22:57:12.019Z,92.41
2022-10-29T22:59:14.731Z,94.70
2022-10-29T23:01:19.424Z,94.57
2022-10-29T23:03:22.257Z,95.66
2022-10-29T23:05:24.955Z,95.23
2022-10-29T23:07:29.091Z,96.14
2022-10-29T23:09:32.017Z,96.11
2022-10-29T23:11:38.919Z,97.45
2022-10-29T23:13:41.750Z,97.48
2022-10-29T23:15:47.354Z,97.90
2022-10-29T23:17:53.557Z,98.66
2022-10-29T23:19:56.747Z,99.60
2022-10-29T23:21:59.457Z,99.79
2022-10-29T23:24:03.757Z,100.00
2022-10-29T23:26:06.465Z,100.00
2022-10-29T23:28:09.501Z,100.00
2022-10-29T23:30:13.152Z,100.00
2022-10-29T23:32:15.818Z,100.00
2022-10-29T23:34:18.560Z,100.00
2022-10-29T23:36:24.046Z,100.00
2022-10-29T23:38:26.889Z,100.00
2022-10-29T23:40:31.012Z,100.00
2022-10-29T23:42:33.752Z,100.00
2022-10-29T23:44:36.415Z,100.00
2022-10-29T23:46:39.053Z,100.00
2022-10-29T23:48:41.725Z,100.00
2022-10-29T23:50:44.386Z,100.00
2022-10-29T23:52:47.214Z,100.00
2022-10-29T23:54:49.915Z,100.00
2022-10-29T23:56:54.034Z,100.00
2022-10-29T23:58:56.808Z,100.00
